Time;durP1;ratioP1;P1;durP2;ratioP2;P2;SDS_P1;SDS_P2;PMS_P1;PMS_P2;Temp;Humidity;BMP_temperature;BMP_pressure;BME280_temperature;BME280_humidity;BME280_pressure;Samples;Min_cycle;Max_cycle;Signal;HPM_P1;HPM_P2
2021/12/31 00:00:30;;;;;;;5.22;1.92;;;13.20;99.90;;;11.81;100.00;101512.22;2568348;30;138597;-40
2021/12/31 00:02:58;;;;;;;8.43;2.20;;;13.20;99.90;;;11.81;100.00;101504.00;2566957;30;138177;-40
2021/12/31 00:05:25;;;;;;;;;;;13.20;99.90;;;11.85;100.00;101507.19;2565232;30;137679;-40
2021/12/31 00:07:53;;;;;;;6.72;1.83;;;13.30;99.90;;;11.86;100.00;101511.59;2568349;30;137134;-40
2021/12/31 00:10:21;;;;;;;6.03;2.00;;;13.30;99.90;;;11.87;100.00;101511.38;2567038;30;137091;-40
2021/12/31 00:12:48;;;;;;;5.55;1.88;;;13.30;99.90;;;11.90;100.00;101508.25;2567652;30;136784;-40
2021/12/31 00:15:16;;;;;;;5.28;1.90;;;13.30;99.90;;;11.90;100.00;101500.03;2566706;30;137526;-40
2021/12/31 00:17:44;;;;;;;;;;;13.30;99.90;;;11.87;100.00;101496.88;2568112;30;137319;-40
2021/12/31 00:20:15;;;;;;;8.45;2.08;;;13.30;99.90;;;11.95;100.00;101513.09;2566007;30;138167;-40
2021/12/31 00:23:01;;;;;;;5.47;2.13;;;13.30;99.90;;;11.93;100.00;101502.38;2568898;30;136792;-40
2021/12/31 00:25:35;;;;;;;4.28;1.85;;;13.40;99.90;;;11.92;100.00;101502.56;2567249;30;139029;-40
2021/12/31 00:28:04;;;;;;;7.00;1.90;;;13.40;99.90;;;11.92;100.00;101505.31;2567159;30;136775;-40
2021/12/31 00:30:33;;;;;;;9.63;2.00;;;13.40;99.90;;;11.91;100.00;101489.97;2568285;30;138238;-40
2021/12/31 00:33:02;;;;;;;4.05;1.73;;;13.40;99.90;;;11.89;100.00;101483.84;2566042;30;137907;-41
2021/12/31 00:35:31;;;;;;;5.85;1.70;;;13.30;99.90;;;11.97;100.00;101491.88;2567933;30;139196;-40
2021/12/31 00:37:59;;;;;;;6.60;1.80;;;13.40;99.90;;;12.02;100.00;101496.75;2565334;30;137771;-40
2021/12/31 00:40:30;;;;;;;5.95;1.65;;;13.40;99.90;;;12.04;100.00;101497.41;2566403;30;137790;-40
2021/12/31 00:42:57;;;;;;;6.55;1.75;;;13.40;99.90;;;12.00;100.00;101488.72;2568032;30;137364;-40
2021/12/31 00:45:25;;;;;;;6.55;1.67;;;13.40;99.90;;;11.97;100.00;101491.03;2567834;30;137127;-40
2021/12/31 00:47:54;;;;;;;8.45;2.00;;;13.40;99.90;;;11.98;100.00;101493.53;2567865;30;137481;-40
2021/12/31 00:50:22;;;;;;;6.13;2.00;;;13.40;99.90;;;11.93;100.00;101485.97;2566479;30;138140;-40
2021/12/31 00:52:50;;;;;;;4.85;1.63;;;13.40;99.90;;;11.93;100.00;101491.44;2568016;30;137271;-40
2021/12/31 00:55:18;;;;;;;6.28;1.60;;;13.40;99.90;;;11.99;100.00;101495.22;2567600;30;137487;-40
2021/12/31 00:57:46;;;;;;;4.95;1.85;;;13.40;99.90;;;11.98;100.00;101492.72;2568395;30;136626;-40
2021/12/31 01:00:15;;;;;;;3.95;1.40;;;13.40;99.90;;;11.98;100.00;101492.72;2567226;30;136892;-40
2021/12/31 01:02:46;;;;;;;5.60;1.55;;;13.40;99.90;;;11.98;100.00;101492.72;2567846;30;136803;-40
2021/12/31 01:05:15;;;;;;;6.97;1.52;;;13.40;99.90;;;11.94;100.00;101495.00;2566632;30;138346;-40
2021/12/31 01:07:43;;;;;;;4.50;1.77;;;13.40;99.90;;;11.92;100.00;101499.84;2567450;30;137072;-40
2021/12/31 01:10:17;;;;;;;4.45;1.73;;;13.40;99.90;;;11.96;100.00;101500.28;2567985;30;138390;-40
2021/12/31 01:12:46;;;;;;;7.13;1.70;;;13.40;99.90;;;11.90;100.00;101502.78;2566800;30;138242;-40
2021/12/31 01:15:33;;;;;;;4.57;1.35;;;13.40;99.90;;;11.88;100.00;101499.41;2567128;30;138246;-40
2021/12/31 01:20:29;;;;;;;5.60;1.98;;;13.30;99.90;;;11.97;100.00;101501.97;2567218;30;139136;-40
2021/12/31 01:22:57;;;;;;;4.28;1.40;;;13.40;99.90;;;11.93;100.00;101491.44;2565556;30;137670;-40
2021/12/31 01:25:28;;;;;;;5.28;1.67;;;13.40;99.90;;;11.91;100.00;101498.16;2567425;30;138353;-40
2021/12/31 01:27:55;;;;;;;2.90;1.10;;;13.40;99.90;;;11.90;100.00;101500.03;2568349;30;137838;-40
2021/12/31 01:30:23;;;;;;;;;;;13.30;99.90;;;11.99;100.00;101506.16;2569403;30;137306;-40
2021/12/31 01:32:50;;;;;;;4.75;1.80;;;13.40;99.90;;;11.99;100.00;101505.34;2567751;30;137064;-40
2021/12/31 01:35:18;;;;;;;6.72;1.58;;;13.40;99.90;;;12.04;100.00;101505.59;2569148;30;137510;-40
2021/12/31 01:37:46;;;;;;;;;;;13.40;99.90;;;12.04;100.00;101502.88;2569314;30;138498;-40
2021/12/31 01:40:14;;;;;;;3.63;1.40;;;13.40;99.90;;;11.97;100.00;101489.13;2568848;30;138270;-40
2021/12/31 01:42:41;;;;;;;;;;;13.40;99.90;;;12.03;100.00;101496.53;2568368;30;137573;-40
2021/12/31 01:45:17;;;;;;;4.97;1.38;;;13.40;99.90;;;12.01;100.00;101500.53;2566524;30;138300;-40
2021/12/31 01:47:57;;;;;;;4.32;1.58;;;13.40;99.90;;;12.00;100.00;101487.88;2567151;30;137358;-40
2021/12/31 01:50:28;;;;;;;5.95;1.65;;;13.40;99.90;;;12.01;100.00;101497.81;2567082;30;138618;-40
2021/12/31 01:52:56;;;;;;;6.82;1.40;;;13.40;99.90;;;12.01;100.00;101492.34;2567898;30;138272;-40
2021/12/31 01:55:31;;;;;;;5.15;1.90;;;13.50;99.90;;;12.00;100.00;101493.34;2568627;30;137510;-40
2021/12/31 01:58:01;;;;;;;4.00;1.45;;;13.40;99.90;;;12.02;100.00;101488.56;2568781;30;138510;-40
2021/12/31 02:00:29;;;;;;;3.17;1.58;;;13.40;99.90;;;11.97;100.00;101494.59;2568785;30;138301;-40
2021/12/31 02:03:00;;;;;;;4.35;1.30;;;13.40;99.90;;;12.11;100.00;101500.97;2568060;30;137295;-40
2021/12/31 02:05:28;;;;;;;6.05;1.60;;;13.40;99.90;;;12.17;100.00;101502.88;2566772;30;138273;-40
2021/12/31 02:08:00;;;;;;;3.03;1.27;;;13.50;99.90;;;12.14;100.00;101506.03;2568606;30;137619;-40
2021/12/31 02:10:28;;;;;;;3.45;1.05;;;13.50;99.90;;;12.14;100.00;101510.69;2569145;30;138168;-40
2021/12/31 02:12:56;;;;;;;3.33;1.15;;;13.50;99.90;;;12.13;100.00;101507.09;2568251;30;138219;-40
2021/12/31 02:15:26;;;;;;;2.30;1.00;;;13.50;99.90;;;12.13;100.00;101504.34;2567359;30;138203;-40
2021/12/31 02:17:54;;;;;;;3.25;1.65;;;13.50;99.90;;;12.08;100.00;101506.88;2566648;30;137670;-40
2021/12/31 02:20:21;;;;;;;5.78;1.48;;;13.50;99.90;;;12.07;100.00;101502.44;2568919;30;136656;-40
2021/12/31 02:23:05;;;;;;;4.43;1.23;;;13.50;99.90;;;12.01;100.00;101506.00;2565896;30;137683;-40
2021/12/31 02:25:35;;;;;;;3.45;1.40;;;13.50;99.90;;;11.98;100.00;101511.88;2567740;30;138921;-40
2021/12/31 02:28:03;;;;;;;6.20;1.40;;;13.40;99.90;;;12.06;100.00;101517.16;2565427;30;137022;-40
2021/12/31 02:30:31;;;;;;;3.65;1.27;;;13.50;99.90;;;12.04;100.00;101506.44;2569047;30;138285;-40
2021/12/31 02:32:59;;;;;;;4.07;1.27;;;13.40;99.90;;;12.04;100.00;101508.34;2569401;30;137423;-40
2021/12/31 02:35:27;;;;;;;3.95;1.10;;;13.50;99.90;;;12.05;100.00;101504.53;2567176;30;138140;-40
2021/12/31 02:37:54;;;;;;;4.75;1.42;;;13.40;99.90;;;12.06;99.93;101506.22;2568601;30;137028;-40
2021/12/31 02:40:24;;;;;;;2.92;1.30;;;13.50;99.90;;;12.12;99.40;101510.88;2569225;30;137362;-40
2021/12/31 02:42:51;;;;;;;3.05;1.40;;;13.50;99.90;;;12.10;99.42;101507.50;2567851;30;136674;-40
2021/12/31 02:45:21;;;;;;;4.68;1.48;;;13.50;99.90;;;12.09;99.95;101494.88;2567076;30;137347;-40
2021/12/31 02:47:49;;;;;;;3.85;1.45;;;13.50;99.90;;;12.11;99.00;101498.25;2567921;30;138383;-40
2021/12/31 02:50:19;;;;;;;2.67;1.25;;;13.50;99.90;;;12.09;99.64;101494.88;2569510;30;137432;-40
2021/12/31 02:52:47;;;;;;;4.40;1.15;;;13.50;99.90;;;12.07;99.84;101494.25;2567300;30;136782;-40
2021/12/31 02:55:17;;;;;;;5.13;1.40;;;13.50;99.90;;;12.10;99.05;101490.25;2566763;30;137155;-40
2021/12/31 02:57:45;;;;;;;2.83;1.15;;;13.50;99.90;;;12.09;99.45;101494.88;2565236;30;136907;-40
2021/12/31 03:00:13;;;;;;;3.95;1.30;;;13.50;99.90;;;12.10;99.40;101490.25;2567399;30;138024;-40
2021/12/31 03:02:43;;;;;;;5.63;1.40;;;13.50;99.90;;;12.10;98.92;101496.56;2568419;30;137345;-40
2021/12/31 03:05:11;;;;;;;3.78;1.27;;;13.50;99.90;;;12.08;98.67;101495.94;2568395;30;138148;-40
2021/12/31 03:07:42;;;;;;;3.42;1.40;;;13.50;99.90;;;12.06;99.12;101498.03;2569039;30;137567;-40
2021/12/31 03:10:10;;;;;;;4.72;1.40;;;13.50;99.90;;;12.05;99.51;101501.81;2566816;30;138215;-40
2021/12/31 03:12:42;;;;;;;4.05;1.58;;;13.50;99.90;;;12.00;99.67;101491.44;2568437;30;137063;-40
2021/12/31 03:15:11;;;;;;;5.53;1.40;;;13.40;99.90;;;11.98;99.79;101500.94;2565293;30;138238;-40
2021/12/31 03:17:41;;;;;;;3.63;1.10;;;13.40;99.90;;;11.94;100.00;101487.66;2566697;30;137334;-40
2021/12/31 03:20:24;;;;;;;6.10;1.58;;;13.40;99.90;;;11.96;100.00;101490.19;2567026;30;139079;-40
2021/12/31 03:22:52;;;;;;;2.35;1.10;;;13.40;99.90;;;11.98;100.00;101492.72;2566107;30;137524;-40
2021/12/31 03:26:50;;;;;;;4.22;1.30;;;13.40;99.90;;;11.91;100.00;101493.53;2564907;30;137059;-40
2021/12/31 03:29:18;;;;;;;3.95;1.25;;;13.30;99.90;;;12.00;99.49;101494.19;2568050;30;136735;-37
2021/12/31 03:31:45;;;;;;;2.78;1.25;;;13.30;99.90;;;12.04;99.37;101489.19;2568481;30;138260;-37
2021/12/31 03:34:16;;;;;;;4.93;1.40;;;13.40;99.90;;;12.06;98.86;101492.56;2568834;30;137005;-42
2021/12/31 03:36:44;;;;;;;4.15;1.45;;;13.50;99.90;;;12.05;98.56;101490.88;2567557;30;138654;-37
2021/12/31 03:39:12;;;;;;;3.88;1.05;;;13.50;99.90;;;12.01;99.13;101484.13;2567945;30;137462;-38
2021/12/31 03:41:39;;;;;;;;;;;13.40;99.90;;;11.97;99.37;101488.31;2567810;30;137736;-37
2021/12/31 03:44:07;;;;;;;3.72;1.15;;;13.40;99.90;;;12.04;99.00;101486.44;2569051;30;137149;-40
2021/12/31 03:46:34;;;;;;;3.30;1.00;;;13.40;99.90;;;12.04;99.04;101475.50;2567604;30;137408;-37
2021/12/31 03:49:02;;;;;;;4.40;1.52;;;13.50;99.90;;;12.03;98.76;101471.09;2568749;30;137607;-37
2021/12/31 03:51:29;;;;;;;3.03;0.93;;;13.40;99.90;;;12.08;98.45;101476.78;2568122;30;138989;-40
2021/12/31 03:53:57;;;;;;;6.18;1.40;;;13.50;99.90;;;12.06;98.47;101468.78;2566740;30;137312;-37
2021/12/31 03:56:30;;;;;;;4.97;1.10;;;13.50;99.90;;;12.07;98.69;101464.16;2567457;30;137336;-37
2021/12/31 03:58:59;;;;;;;2.33;1.20;;;13.50;99.90;;;12.05;99.20;101455.31;2568117;30;137383;-37
2021/12/31 04:01:27;;;;;;;4.95;1.30;;;13.50;99.90;;;12.03;98.97;101454.69;2567669;30;137064;-38
2021/12/31 04:03:56;;;;;;;4.88;1.20;;;13.40;99.90;;;12.04;98.64;101456.38;2568032;30;138994;-37
2021/12/31 04:06:23;;;;;;;2.25;1.00;;;13.50;99.90;;;12.03;98.78;101460.16;2567156;30;138230;-37
2021/12/31 04:08:51;;;;;;;3.50;1.10;;;13.50;99.90;;;12.03;98.68;101463.72;2566093;30;137038;-37
2021/12/31 04:11:19;;;;;;;;;;;13.50;99.90;;;12.06;98.28;101470.69;2567929;30;138112;-37
2021/12/31 04:13:46;;;;;;;5.28;1.25;;;13.50;99.90;;;12.09;97.44;101475.72;2568319;30;136924;-41
2021/12/31 04:16:14;;;;;;;4.75;1.52;;;13.50;99.90;;;12.09;97.65;101470.25;2567415;30;137441;-37
2021/12/31 04:18:42;;;;;;;2.45;1.10;;;13.50;99.90;;;12.06;98.12;101463.31;2569887;30;136891;-38
2021/12/31 04:21:09;;;;;;;2.95;1.15;;;13.50;99.90;;;12.02;98.15;101455.75;2567401;30;138163;-37
2021/12/31 04:23:47;;;;;;;3.50;1.10;;;13.50;99.90;;;12.00;97.72;101457.81;2565454;30;137483;-37
2021/12/31 04:26:16;;;;;;;4.07;1.40;;;13.40;99.90;;;12.02;97.65;101474.88;2568361;30;138019;-37
2021/12/31 04:28:44;;;;;;;4.75;1.20;;;13.40;99.90;;;11.98;97.51;101459.91;2566586;30;137083;-37
2021/12/31 04:31:12;;;;;;;2.90;1.02;;;13.40;99.90;;;11.95;97.57;101458.41;2566508;30;138263;-38
2021/12/31 04:33:40;;;;;;;;;;;13.40;99.90;;;11.87;98.42;101462.16;2567498;30;136955;-37
2021/12/31 04:36:08;;;;;;;3.20;1.10;;;13.30;99.90;;;11.89;97.79;101465.53;2565678;30;138264;-37
2021/12/31 04:38:35;;;;;;;4.35;1.15;;;13.30;99.90;;;11.86;98.15;101463.22;2565438;30;137339;-38
2021/12/31 04:41:03;;;;;;;3.00;1.20;;;13.30;99.90;;;11.89;97.85;101451.88;2569366;30;138283;-37
2021/12/31 04:43:30;;;;;;;2.65;1.05;;;13.30;99.90;;;11.82;98.02;101455.66;2566960;30;137039;-38
2021/12/31 04:45:58;;;;;;;5.30;1.48;;;13.30;99.90;;;11.89;97.43;101459.25;2567423;30;138978;-41
2021/12/31 04:48:25;;;;;;;3.30;1.20;;;13.30;99.90;;;11.87;98.02;101453.97;2568841;30;137358;-38
2021/12/31 04:50:53;;;;;;;3.65;1.38;;;13.30;99.90;;;11.81;97.81;101460.28;2569153;30;138301;-37
2021/12/31 04:53:21;;;;;;;3.22;1.00;;;13.30;99.90;;;11.80;98.07;101453.97;2568424;30;137443;-38
2021/12/31 04:55:50;;;;;;;2.65;1.00;;;13.20;99.90;;;11.77;98.61;101456.25;2566989;30;138202;-37
2021/12/31 04:58:17;;;;;;;2.67;1.20;;;13.20;99.90;;;11.74;98.91;101464.88;2567201;30;138113;-37
2021/12/31 05:00:45;;;;;;;4.10;1.55;;;13.20;99.90;;;11.79;98.23;101465.09;2567897;30;139222;-38
2021/12/31 05:03:14;;;;;;;2.70;1.27;;;13.20;99.90;;;11.74;98.50;101470.34;2567492;30;137388;-38
2021/12/31 05:05:41;;;;;;;3.45;1.00;;;13.20;99.90;;;11.76;98.75;101469.06;2565917;30;138860;-37
2021/12/31 05:08:09;;;;;;;5.28;1.30;;;13.20;99.90;;;11.76;98.98;101466.34;2568718;30;137593;-38
2021/12/31 05:10:36;;;;;;;3.00;1.13;;;13.20;99.90;;;11.76;98.72;101468.25;2569308;30;138380;-39
2021/12/31 05:13:05;;;;;;;5.53;2.08;;;13.20;99.90;;;11.74;98.86;101465.69;2566300;30;137970;-37
2021/12/31 05:15:36;;;;;;;4.05;1.40;;;13.20;99.90;;;11.78;98.97;101472.44;2567841;30;138307;-37
2021/12/31 05:18:04;;;;;;;5.90;1.50;;;13.20;99.90;;;11.78;98.35;101463.41;2569066;30;137485;-40
2021/12/31 05:20:31;;;;;;;3.67;1.52;;;13.20;99.90;;;11.78;98.22;101455.22;2567139;30;138238;-37
2021/12/31 05:23:00;;;;;;;4.65;1.88;;;13.20;99.90;;;11.79;97.51;101456.91;2569141;30;137496;-37
2021/12/31 05:25:28;;;;;;;3.45;1.50;;;13.20;99.90;;;11.75;98.06;101459.19;2568149;30;138959;-38
2021/12/31 05:27:56;;;;;;;4.90;1.77;;;13.20;99.90;;;11.74;98.08;101462.16;2568294;30;136858;-39
2021/12/31 05:30:27;;;;;;;3.03;1.48;;;13.20;99.90;;;11.71;97.61;101454.34;2567810;30;139020;-37
2021/12/31 05:32:54;;;;;;;5.15;1.73;;;13.10;99.90;;;11.67;98.00;101459.38;2567291;30;137473;-38
2021/12/31 05:35:22;;;;;;;6.80;1.92;;;13.10;99.90;;;11.63;98.39;101448.00;2568285;30;138180;-37
2021/12/31 05:37:50;;;;;;;5.65;2.40;;;13.10;99.90;;;11.66;98.13;101450.31;2568767;30;137443;-38
2021/12/31 05:40:17;;;;;;;4.65;1.80;;;13.10;99.90;;;11.66;97.78;101444.84;2568661;30;138181;-37
2021/12/31 05:42:45;;;;;;;4.65;2.17;;;13.10;99.90;;;11.58;98.35;101452.41;2567908;30;137429;-38
2021/12/31 05:45:13;;;;;;;;;;;13.10;99.90;;;11.61;98.30;101457.47;2567601;30;137309;-40
2021/12/31 05:47:40;;;;;;;3.58;1.60;;;13.00;99.90;;;11.59;98.07;101452.19;2569036;30;137028;-37
2021/12/31 05:50:18;;;;;;;;;;;13.00;99.90;;;11.55;98.96;101447.34;2570014;30;138242;-37
2021/12/31 05:52:46;;;;;;;4.03;1.67;;;13.00;99.90;;;11.51;99.11;101434.06;2567944;30;137631;-37
2021/12/31 05:55:14;;;;;;;;;;;13.00;99.90;;;11.55;98.56;101437.25;2568969;30;137446;-37
2021/12/31 05:57:41;;;;;;;4.00;1.70;;;13.00;99.90;;;11.54;98.80;101432.84;2568596;30;137118;-40
2021/12/31 06:00:09;;;;;;;5.18;1.40;;;12.90;99.90;;;11.54;98.99;101423.78;2568659;30;139193;-38
2021/12/31 06:02:37;;;;;;;3.85;1.42;;;13.00;99.90;;;11.55;98.46;101437.25;2568158;30;137286;-38
2021/12/31 06:05:05;;;;;;;3.78;1.42;;;13.00;99.90;;;11.56;98.20;101430.75;2569721;30;139129;-37
2021/12/31 06:07:33;;;;;;;3.78;1.45;;;13.00;99.90;;;11.60;98.25;101428.47;2568482;30;137289;-37
2021/12/31 06:10:01;;;;;;;4.18;1.30;;;13.00;99.90;;;11.58;97.68;101434.13;2566776;30;138315;-37
2021/12/31 06:12:28;;;;;;;3.95;1.33;;;13.00;99.90;;;11.57;98.14;101431.59;2567268;30;137378;-37
2021/12/31 06:14:59;;;;;;;5.82;1.55;;;13.00;99.90;;;11.57;98.46;101446.09;2567853;30;137908;-39
2021/12/31 06:17:27;;;;;;;4.50;1.30;;;13.00;99.90;;;11.61;97.76;101450.09;2568727;30;136839;-37
2021/12/31 06:19:55;;;;;;;3.65;1.20;;;13.00;99.90;;;11.63;98.03;101453.47;2568663;30;137337;-38
2021/12/31 06:22:24;;;;;;;3.58;1.40;;;13.10;99.90;;;11.65;97.45;101451.38;2568211;30;137074;-38
2021/12/31 06:24:52;;;;;;;4.75;1.40;;;13.00;99.90;;;11.74;97.19;101453.94;2566563;30;137750;-38
2021/12/31 06:27:24;;;;;;;4.85;1.40;;;13.10;99.90;;;11.73;97.23;101458.56;2568890;30;138145;-37
2021/12/31 06:29:51;;;;;;;;;;;13.20;99.90;;;11.70;97.58;101461.69;2569107;30;139084;-39
2021/12/31 06:32:18;;;;;;;3.05;1.00;;;13.10;99.90;;;11.70;97.25;101455.41;2567067;30;137899;-37
2021/12/31 06:34:46;;;;;;;3.33;1.27;;;13.10;99.90;;;11.74;97.17;101453.94;2567941;30;137439;-37
2021/12/31 06:37:14;;;;;;;2.92;1.10;;;13.20;99.90;;;11.75;97.05;101461.09;2567831;30;137399;-37
2021/12/31 06:39:43;;;;;;;6.07;1.33;;;13.20;99.90;;;11.71;97.31;101454.34;2567947;30;137706;-37
2021/12/31 06:42:10;;;;;;;2.55;1.20;;;13.20;99.90;;;11.70;97.68;101455.41;2568259;30;138259;-37
2021/12/31 06:44:39;;;;;;;4.13;1.40;;;13.10;99.90;;;11.71;97.59;101460.66;2567265;30;138142;-37
2021/12/31 06:47:07;;;;;;;4.22;1.50;;;13.10;99.90;;;11.66;97.84;101455.78;2567495;30;138224;-37
2021/12/31 06:49:35;;;;;;;2.50;1.05;;;13.10;99.90;;;11.57;97.49;101443.34;2568718;30;137337;-37
2021/12/31 06:52:04;;;;;;;;;;;13.10;99.90;;;11.50;97.72;101434.28;2568247;30;136993;-38
2021/12/31 06:54:32;;;;;;;2.45;1.30;;;13.00;99.90;;;11.44;97.66;101438.69;2566277;30;138513;-38
2021/12/31 06:56:59;;;;;;;3.17;1.33;;;12.90;99.90;;;11.41;97.86;101433.63;2567749;30;137306;-37
2021/12/31 06:59:27;;;;;;;4.40;1.45;;;12.90;99.90;;;11.36;97.88;101426.03;2569169;30;138010;-37
2021/12/31 07:01:55;;;;;;;3.10;1.30;;;12.80;99.90;;;11.32;98.55;101432.13;2568665;30;137587;-38
2021/12/31 07:04:23;;;;;;;3.47;1.25;;;12.80;99.90;;;11.32;97.96;101438.41;2567607;30;136837;-37
2021/12/31 07:06:50;;;;;;;2.08;1.17;;;12.80;99.90;;;11.28;97.78;101439.03;2567812;30;138193;-38
2021/12/31 07:09:18;;;;;;;2.05;1.05;;;12.80;99.90;;;11.29;97.77;101447.00;2568818;30;138180;-37
2021/12/31 07:11:46;;;;;;;2.58;1.20;;;12.80;99.90;;;11.23;97.82;101456.03;2568482;30;137922;-37
2021/12/31 07:14:13;;;;;;;2.50;1.20;;;12.70;99.90;;;11.14;98.32;101451.75;2569071;30;137445;-36
2021/12/31 07:16:41;;;;;;;3.10;1.42;;;12.60;99.90;;;11.00;98.89;101450.81;2565196;30;137393;-38
2021/12/31 07:19:08;;;;;;;4.13;1.50;;;12.60;99.90;;;10.94;99.64;101460.69;2568837;30;138236;-37
2021/12/31 07:21:35;;;;;;;3.92;1.33;;;12.50;99.90;;;10.85;99.95;101461.84;2566676;30;136960;-37
2021/12/31 07:24:03;;;;;;;7.13;1.40;;;12.40;99.90;;;10.83;100.00;101463.94;2566180;30;138227;-37
2021/12/31 07:26:31;;;;;;;;;;;12.30;99.90;;;10.81;100.00;101468.75;2566909;30;138364;-37
2021/12/31 07:28:58;;;;;;;3.83;1.13;;;12.30;99.90;;;10.75;100.00;101462.22;2567274;30;139450;-37
2021/12/31 07:31:26;;;;;;;4.22;1.52;;;12.20;99.90;;;10.69;100.00;101463.84;2567691;30;138351;-38
2021/12/31 07:33:53;;;;;;;3.15;1.30;;;12.20;99.90;;;10.60;100.00;101465.88;2567974;30;137759;-37
2021/12/31 07:36:21;;;;;;;4.32;1.60;;;12.10;99.90;;;10.53;100.00;101455.94;2566346;30;138319;-37
2021/12/31 07:38:58;;;;;;;2.53;1.17;;;12.10;99.90;;;10.52;100.00;101462.44;2567807;30;137229;-37
2021/12/31 07:41:26;;;;;;;3.28;1.30;;;12.00;99.90;;;10.48;100.00;101457.38;2568251;30;137092;-37
2021/12/31 07:43:53;;;;;;;;;;;12.00;99.90;;;10.46;100.00;101450.41;2569398;30;137267;-37
2021/12/31 07:46:21;;;;;;;4.85;1.27;;;12.00;99.90;;;10.41;100.00;101455.63;2567156;30;138277;-37
2021/12/31 07:48:49;;;;;;;4.47;1.75;;;11.90;99.90;;;10.42;100.00;101460.03;2568639;30;138313;-37
2021/12/31 07:51:18;;;;;;;4.60;1.73;;;11.90;99.90;;;10.50;100.00;101446.28;2567843;30;137593;-37
2021/12/31 07:53:45;;;;;;;6.15;2.47;;;12.00;99.90;;;10.49;100.00;101456.34;2567979;30;139509;-37
2021/12/31 07:56:14;;;;;;;4.22;1.50;;;12.00;99.90;;;10.42;100.00;101452.72;2566983;30;137788;-39
2021/12/31 07:58:41;;;;;;;5.10;1.88;;;11.90;99.90;;;10.43;100.00;101448.94;2567285;30;138301;-37
2021/12/31 08:01:09;;;;;;;5.10;1.95;;;11.90;99.90;;;10.47;100.00;101450.22;2568219;30;138439;-39
2021/12/31 08:03:37;;;;;;;3.80;1.80;;;11.90;99.90;;;10.49;100.00;101458.22;2565335;30;138333;-37
2021/12/31 08:06:04;;;;;;;3.45;1.60;;;12.00;99.90;;;10.53;100.00;101470.44;2568174;30;137057;-38
2021/12/31 08:08:32;;;;;;;4.10;1.88;;;12.00;99.90;;;10.52;100.00;101471.47;2567833;30;138209;-37
2021/12/31 08:10:59;;;;;;;6.28;2.13;;;12.00;99.90;;;10.53;100.00;101472.31;2564831;30;137152;-37
2021/12/31 08:13:27;;;;;;;2.90;1.85;;;12.00;99.90;;;10.53;100.00;101472.31;2568062;30;138360;-37
2021/12/31 08:15:55;;;;;;;6.05;1.80;;;12.00;99.90;;;10.54;100.00;101472.13;2565812;30;137073;-38
2021/12/31 08:18:22;;;;;;;;;;;12.00;99.90;;;10.53;100.00;101475.03;2568503;30;138974;-37
2021/12/31 08:20:50;;;;;;;4.88;1.83;;;12.00;99.90;;;10.55;100.00;101482.00;2567084;30;137376;-37
2021/12/31 08:23:18;;;;;;;;;;;12.00;99.90;;;10.53;100.00;101475.91;2566900;30;139160;-37
2021/12/31 08:25:45;;;;;;;5.07;2.17;;;12.00;99.90;;;10.50;100.00;101474.38;2566551;30;137085;-37
2021/12/31 08:28:13;;;;;;;3.85;2.28;;;12.00;99.90;;;10.43;100.00;101465.31;2566278;30;137367;-37
2021/12/31 08:30:42;;;;;;;5.70;2.22;;;12.00;99.90;;;10.51;100.00;101469.78;2566373;30;137271;-37
2021/12/31 08:33:09;;;;;;;4.28;1.90;;;12.00;99.90;;;10.47;100.00;101466.59;2567147;30;138985;-37
2021/12/31 08:35:37;;;;;;;6.18;3.15;;;12.00;99.90;;;10.51;100.00;101472.53;2568425;30;137492;-37
2021/12/31 08:38:04;;;;;;;5.38;1.95;;;12.00;99.90;;;10.53;100.00;101481.34;2567320;30;138328;-39
2021/12/31 08:40:32;;;;;;;5.72;1.95;;;12.00;99.90;;;10.54;100.00;101471.25;2568091;30;137627;-37
2021/12/31 08:43:00;;;;;;;3.88;1.70;;;12.00;99.90;;;10.50;100.00;101477.13;2568001;30;138442;-37
2021/12/31 08:45:32;;;;;;;4.95;2.25;;;12.00;99.90;;;10.52;100.00;101478.81;2566944;30;138181;-37
2021/12/31 08:48:01;;;;;;;3.17;1.63;;;12.00;99.90;;;10.53;100.00;101475.03;2569327;30;137232;-40
2021/12/31 08:50:29;;;;;;;4.47;2.00;;;12.00;99.90;;;10.56;100.00;101475.50;2567636;30;136913;-37
2021/12/31 08:52:56;;;;;;;4.00;1.98;;;12.00;99.90;;;10.55;100.00;101481.13;2567921;30;137958;-37
2021/12/31 08:55:24;;;;;;;2.90;1.50;;;12.00;99.90;;;10.53;100.00;101491.41;2568176;30;137158;-37
2021/12/31 08:57:52;;;;;;;6.25;2.70;;;12.00;99.90;;;10.53;100.00;101485.94;2566913;30;138036;-37
2021/12/31 09:00:20;;;;;;;5.75;2.47;;;12.00;99.90;;;10.50;100.00;101496.22;2567930;30;137460;-39
2021/12/31 09:02:50;;;;;;;4.53;2.65;;;12.00;99.90;;;10.51;100.00;101491.63;2568139;30;138445;-37
2021/12/31 09:05:18;;;;;;;4.80;1.77;;;12.00;99.90;;;10.55;100.00;101503.81;2568358;30;138212;-37
2021/12/31 09:07:46;;;;;;;3.95;2.00;;;12.00;99.90;;;10.54;100.00;101493.94;2567411;30;138467;-37
2021/12/31 09:10:17;;;;;;;4.28;2.05;;;12.00;99.90;;;10.58;100.00;101499.84;2568968;30;137528;-37
2021/12/31 09:12:46;;;;;;;4.85;2.55;;;12.00;99.90;;;10.61;100.00;101510.38;2567667;30;138399;-37
2021/12/31 09:15:14;;;;;;;5.68;2.25;;;12.00;99.90;;;10.57;100.00;101509.94;2567135;30;137531;-37
2021/12/31 09:17:42;;;;;;;;;;;12.00;99.90;;;10.60;100.00;101503.22;2567308;30;137510;-37
2021/12/31 09:20:10;;;;;;;4.53;2.63;;;12.00;99.90;;;10.65;100.00;101495.31;2566409;30;137495;-37
2021/12/31 09:22:38;;;;;;;3.75;1.92;;;12.00;99.90;;;10.71;100.00;101508.16;2568295;30;139287;-37
2021/12/31 09:25:06;;;;;;;3.55;1.98;;;12.10;99.90;;;10.75;100.00;101498.53;2563827;30;138192;-40
2021/12/31 09:27:34;;;;;;;5.30;2.20;;;12.10;99.90;;;10.81;100.00;101499.63;2567479;30;138416;-40
2021/12/31 09:30:02;;;;;;;5.88;1.85;;;12.20;99.90;;;10.85;100.00;101484.53;2568368;30;137023;-40
2021/12/31 09:32:30;;;;;;;4.93;1.85;;;12.20;99.90;;;10.89;100.00;101488.56;2567532;30;136844;-40
2021/12/31 09:34:58;;;;;;;5.25;2.15;;;12.30;99.90;;;10.93;100.00;101491.75;2568990;30;137210;-41
2021/12/31 09:37:26;;;;;;;4.55;2.20;;;12.30;99.90;;;10.95;100.00;101495.13;2567413;30;139250;-40
2021/12/31 09:39:54;;;;;;;3.88;2.00;;;12.40;99.90;;;10.94;100.00;101502.47;2567256;30;136752;-40
2021/12/31 09:42:21;;;;;;;4.43;1.77;;;12.30;99.90;;;10.93;100.00;101494.47;2567674;30;137456;-40
2021/12/31 09:44:49;;;;;;;4.47;1.80;;;12.30;99.90;;;10.98;100.00;101499.31;2566253;30;138137;-40
2021/12/31 09:47:18;;;;;;;5.47;2.22;;;12.40;99.90;;;11.00;100.00;101499.97;2567082;30;138511;-40
2021/12/31 09:49:48;;;;;;;4.80;2.00;;;12.40;99.90;;;11.04;100.00;101507.56;2568483;30;137525;-40
2021/12/31 09:52:18;;;;;;;4.47;2.15;;;12.40;99.90;;;11.03;100.00;101508.63;2566369;30;138662;-40
2021/12/31 09:54:48;;;;;;;4.40;2.03;;;12.40;99.90;;;11.02;100.00;101495.19;2567684;30;139252;-40
2021/12/31 09:57:20;;;;;;;5.63;2.63;;;12.40;99.90;;;11.08;100.00;101486.19;2568559;30;139184;-40
2021/12/31 09:59:49;;;;;;;6.00;2.47;;;12.40;99.90;;;11.11;99.49;101484.91;2568786;30;137263;-40
2021/12/31 10:02:33;;;;;;;3.60;2.00;;;12.50;99.90;;;11.12;99.52;101489.34;2567587;30;138492;-40
2021/12/31 10:05:03;;;;;;;4.35;2.35;;;12.50;99.90;;;11.12;99.47;101481.16;2568143;30;138609;-40
2021/12/31 10:07:33;;;;;;;5.22;2.30;;;12.50;99.90;;;11.09;99.53;101490.59;2568420;30;138138;-40
2021/12/31 10:10:06;;;;;;;6.38;2.30;;;12.50;99.90;;;11.12;100.00;101489.34;2568490;30;137245;-40
2021/12/31 10:12:56;;;;;;;4.18;2.20;;;12.50;99.90;;;11.12;99.59;101482.00;2568235;30;137904;-40
2021/12/31 10:15:25;;;;;;;4.72;2.08;;;12.50;99.90;;;11.19;99.84;101496.53;2567598;30;136988;-40